createdAt,value
2022-12-16T00:00:11.612Z,3.84
2022-12-16T00:05:18.898Z,3.84
2022-12-16T00:10:26.114Z,3.84
2022-12-16T00:15:33.300Z,3.84
2022-12-16T00:20:40.601Z,3.84
2022-12-16T00:25:47.731Z,3.84
2022-12-16T00:30:55.116Z,3.84
2022-12-16T00:36:02.183Z,3.84
2022-12-16T00:41:09.338Z,3.84
2022-12-16T00:46:16.608Z,3.84
2022-12-16T00:51:23.783Z,3.84
2022-12-16T00:56:30.964Z,3.84
2022-12-16T01:01:38.295Z,3.84
2022-12-16T01:06:45.440Z,2.98
2022-12-16T01:11:52.692Z,2.98
2022-12-16T01:16:59.897Z,2.98
2022-12-16T01:22:07.157Z,2.98
2022-12-16T01:27:14.282Z,3.50
2022-12-16T01:32:21.521Z,3.50
2022-12-16T01:37:28.724Z,3.50
2022-12-16T01:42:35.955Z,3.50
2022-12-16T01:47:43.198Z,3.50
2022-12-16T01:52:50.437Z,2.64
2022-12-16T01:57:57.632Z,2.64
2022-12-16T02:03:05.300Z,2.64
2022-12-16T02:08:12.350Z,2.64
2022-12-16T02:13:19.507Z,2.64
2022-12-16T02:18:26.732Z,2.64
2022-12-16T02:23:34.583Z,2.64
2022-12-16T02:28:41.148Z,2.64
2022-12-16T02:33:48.343Z,2.64
2022-12-16T02:38:56.351Z,2.64
2022-12-16T02:44:02.803Z,1.78
2022-12-16T02:49:09.984Z,1.78
2022-12-16T02:54:17.223Z,1.78
2022-12-16T02:59:24.399Z,2.27
2022-12-16T03:04:31.598Z,1.78
2022-12-16T03:09:38.854Z,2.27
2022-12-16T03:14:45.934Z,2.27
2022-12-16T03:19:53.085Z,2.27
2022-12-16T03:25:00.324Z,2.27
2022-12-16T03:30:07.497Z,1.78
2022-12-16T03:35:14.675Z,2.27
2022-12-16T03:40:21.897Z,2.27
2022-12-16T03:45:29.109Z,2.27
2022-12-16T03:50:36.272Z,2.27
2022-12-16T03:55:43.438Z,1.41
2022-12-16T04:00:50.620Z,1.41
2022-12-16T04:05:57.827Z,1.41
2022-12-16T04:11:05.082Z,1.41
2022-12-16T04:16:12.325Z,1.41
2022-12-16T04:21:19.440Z,1.41
2022-12-16T04:26:26.666Z,1.41
2022-12-16T04:31:33.857Z,1.41
2022-12-16T04:36:41.047Z,1.41
2022-12-16T04:41:48.301Z,1.41
2022-12-16T04:46:55.489Z,1.41
2022-12-16T04:52:02.845Z,1.41
2022-12-16T04:57:10.049Z,1.41
2022-12-16T05:02:17.357Z,1.41
2022-12-16T05:07:24.386Z,1.41
2022-12-16T05:12:31.731Z,1.41
2022-12-16T05:17:38.861Z,1.41
2022-12-16T05:22:46.098Z,0.54
2022-12-16T05:27:53.324Z,0.54
2022-12-16T05:33:00.505Z,0.54
2022-12-16T05:38:07.719Z,0.54
2022-12-16T05:43:16.887Z,0.54
2022-12-16T05:48:22.145Z,1.01
2022-12-16T05:53:29.577Z,1.01
2022-12-16T05:58:36.591Z,1.01
2022-12-16T06:03:43.934Z,1.01
2022-12-16T06:08:50.944Z,1.01
2022-12-16T06:13:58.170Z,1.01
2022-12-16T06:19:05.341Z,1.01
2022-12-16T06:24:12.552Z,1.01
2022-12-16T06:29:19.796Z,1.01
2022-12-16T06:34:26.957Z,1.01
2022-12-16T06:39:34.205Z,1.01
2022-12-16T06:44:41.427Z,1.01
2022-12-16T06:49:48.598Z,0.15
2022-12-16T06:54:55.755Z,0.15
2022-12-16T07:00:03.081Z,0.60
2022-12-16T07:05:10.223Z,0.15
2022-12-16T07:10:17.434Z,0.60
2022-12-16T07:15:24.647Z,0.60
2022-12-16T07:20:31.801Z,0.60
2022-12-16T07:25:39.009Z,0.60
2022-12-16T07:30:46.251Z,0.60
2022-12-16T07:35:53.411Z,0.60
2022-12-16T07:41:00.617Z,0.60
2022-12-16T07:46:08.017Z,0.60
2022-12-16T07:51:15.201Z,0.60
2022-12-16T07:56:22.406Z,0.15
2022-12-16T08:01:29.697Z,0.15
2022-12-16T08:06:40.304Z,0.15
2022-12-16T08:11:44.041Z,0.15
2022-12-16T08:16:51.385Z,0.15
2022-12-16T08:21:58.689Z,0.15
2022-12-16T08:27:05.903Z,0.15
2022-12-16T08:32:13.136Z,0.15
2022-12-16T08:37:20.286Z,0.15
2022-12-16T08:42:27.442Z,0.15
2022-12-16T08:47:34.615Z,0.15
2022-12-16T08:52:41.762Z,0.15
2022-12-16T08:57:49.047Z,0.60
2022-12-16T09:02:56.519Z,1.92
2022-12-16T09:08:03.516Z,1.47
2022-12-16T09:13:10.705Z,1.47
2022-12-16T09:18:18.019Z,2.34
2022-12-16T09:23:25.286Z,1.88
2022-12-16T09:28:32.545Z,1.88
2022-12-16T09:33:39.793Z,1.41
2022-12-16T09:38:47.004Z,1.88
2022-12-16T09:43:54.249Z,1.41
2022-12-16T09:49:01.442Z,2.27
2022-12-16T09:54:08.654Z,2.27
2022-12-16T09:59:15.869Z,2.27
2022-12-16T10:04:23.228Z,1.78
2022-12-16T10:09:30.274Z,1.78
2022-12-16T10:14:37.497Z,1.78
2022-12-16T10:19:44.686Z,1.78
2022-12-16T10:24:55.020Z,1.27
2022-12-16T10:29:59.648Z,1.27
2022-12-16T10:35:06.847Z,2.13
2022-12-16T10:40:14.023Z,2.13
2022-12-16T10:45:21.242Z,2.13
2022-12-16T10:50:28.467Z,2.13
2022-12-16T10:55:35.622Z,2.13
2022-12-16T11:00:42.883Z,2.13
2022-12-16T11:05:50.098Z,2.13
2022-12-16T11:10:57.271Z,2.13
2022-12-16T11:16:04.503Z,1.27
2022-12-16T11:21:15.776Z,1.27
2022-12-16T11:26:18.854Z,1.27
2022-12-16T11:31:26.209Z,1.27
2022-12-16T11:36:33.391Z,1.27
2022-12-16T11:41:40.472Z,1.27
2022-12-16T11:46:47.760Z,1.27
2022-12-16T11:52:08.101Z,1.27
2022-12-16T11:57:02.156Z,1.27
2022-12-16T12:02:09.434Z,1.27
2022-12-16T12:07:16.575Z,1.27
2022-12-16T12:12:23.693Z,0.41
2022-12-16T12:17:30.908Z,0.41
2022-12-16T12:22:38.155Z,0.41
2022-12-16T12:27:45.280Z,0.41
2022-12-16T12:32:52.540Z,0.92
2022-12-16T12:37:59.758Z,0.92
2022-12-16T12:43:06.965Z,0.92
2022-12-16T12:48:14.128Z,0.92
2022-12-16T12:53:21.348Z,0.92
2022-12-16T12:58:28.543Z,0.92
2022-12-16T13:03:36.106Z,0.92
2022-12-16T13:08:43.044Z,0.92
2022-12-16T13:13:50.161Z,0.92
2022-12-16T13:18:57.377Z,0.06
2022-12-16T13:24:04.591Z,0.06
2022-12-16T13:29:11.780Z,0.06
2022-12-16T13:34:19.055Z,0.06
2022-12-16T13:39:26.327Z,0.06
2022-12-16T13:44:33.596Z,0.06
2022-12-16T13:49:40.818Z,0.06
2022-12-16T13:54:48.045Z,0.06
2022-12-16T13:59:55.187Z,0.06
2022-12-16T14:05:02.416Z,0.06
2022-12-16T14:10:09.671Z,0.06
2022-12-16T14:15:16.855Z,0.06
2022-12-16T14:20:24.017Z,0.06
2022-12-16T14:25:31.252Z,0.06
2022-12-16T14:30:38.482Z,0.06
2022-12-16T14:35:47.819Z,0.06
2022-12-16T14:40:55.115Z,0.54
2022-12-16T14:46:02.339Z,0.54
2022-12-16T14:51:09.976Z,0.54
2022-12-16T14:56:17.169Z,0.54
2022-12-16T15:01:24.484Z,0.54
2022-12-16T15:06:31.638Z,0.54
2022-12-16T15:11:38.856Z,0.54
2022-12-16T15:16:46.148Z,0.54
2022-12-16T15:21:53.241Z,0.54
2022-12-16T15:27:00.480Z,0.54
2022-12-16T15:32:07.657Z,0.54
2022-12-16T15:37:14.898Z,0.54
2022-12-16T15:42:22.121Z,0.54
2022-12-16T15:47:29.274Z,0.54
2022-12-16T15:52:36.526Z,0.54
2022-12-16T15:57:43.879Z,0.54
2022-12-16T16:02:51.515Z,0.54
2022-12-16T16:08:03.524Z,0.54
2022-12-16T16:13:05.798Z,0.54
2022-12-16T16:18:13.018Z,0.54
2022-12-16T16:23:20.213Z,0.54
2022-12-16T16:28:27.430Z,0.54
2022-12-16T16:33:35.069Z,0.54
2022-12-16T16:38:41.823Z,0.54
2022-12-16T16:43:49.053Z,0.54
2022-12-16T16:48:56.207Z,0.54
2022-12-16T16:54:03.448Z,0.54
2022-12-16T16:59:10.644Z,0.54
2022-12-16T17:04:17.910Z,0.54
2022-12-16T17:09:25.117Z,0.54
2022-12-16T17:14:32.328Z,0.54
2022-12-16T17:19:39.539Z,0.54
2022-12-16T17:24:50.336Z,0.54
2022-12-16T17:29:54.004Z,0.54
2022-12-16T17:35:01.213Z,0.54
2022-12-16T17:40:08.399Z,0.54
2022-12-16T17:45:15.685Z,0.54
2022-12-16T17:50:22.829Z,0.54
2022-12-16T17:55:30.064Z,0.54
2022-12-16T18:00:37.347Z,0.54
2022-12-16T18:05:45.044Z,1.01
2022-12-16T18:10:51.739Z,1.01
2022-12-16T18:15:59.302Z,0.54
2022-12-16T18:21:06.837Z,0.54
2022-12-16T18:26:14.448Z,0.54
2022-12-16T18:31:22.130Z,1.41
2022-12-16T18:36:29.313Z,1.41
2022-12-16T18:41:36.782Z,0.92
2022-12-16T18:46:44.418Z,0.92
2022-12-16T18:51:51.704Z,0.92
2022-12-16T18:56:59.119Z,0.92
2022-12-16T19:02:06.657Z,0.92
2022-12-16T19:07:13.630Z,0.92
2022-12-16T19:12:20.881Z,1.41
2022-12-16T19:17:28.176Z,1.78
2022-12-16T19:22:35.540Z,1.78
2022-12-16T19:27:42.912Z,1.78
2022-12-16T19:32:50.192Z,1.78
2022-12-16T19:37:57.427Z,1.78
2022-12-16T19:43:04.587Z,2.64
2022-12-16T19:48:12.293Z,2.64
2022-12-16T19:53:19.436Z,2.64
2022-12-16T19:58:26.903Z,2.64
2022-12-16T20:03:34.820Z,2.64
2022-12-16T20:08:41.947Z,2.64
2022-12-16T20:13:49.123Z,2.13
2022-12-16T20:18:56.394Z,2.13
2022-12-16T20:24:03.561Z,2.64
2022-12-16T20:29:10.783Z,2.64
2022-12-16T20:34:18.069Z,2.64
2022-12-16T20:39:25.560Z,2.98
2022-12-16T20:44:32.877Z,2.98
2022-12-16T20:49:40.152Z,2.98
2022-12-16T20:54:47.329Z,2.98
2022-12-16T20:59:54.540Z,2.98
2022-12-16T21:05:01.769Z,2.98
2022-12-16T21:10:09.298Z,2.98
2022-12-16T21:15:16.704Z,2.98
2022-12-16T21:20:24.183Z,2.98
2022-12-16T21:25:31.142Z,2.98
2022-12-16T21:30:38.514Z,3.84
2022-12-16T21:35:45.723Z,3.30
2022-12-16T21:40:55.997Z,3.30
2022-12-16T21:46:00.147Z,3.30
2022-12-16T21:51:07.435Z,3.30
2022-12-16T21:56:14.673Z,3.30
2022-12-16T22:01:21.962Z,3.30
2022-12-16T22:06:29.093Z,3.30
2022-12-16T22:11:36.370Z,3.30
2022-12-16T22:16:43.600Z,3.30
2022-12-16T22:21:50.828Z,3.30
2022-12-16T22:26:58.033Z,3.30
2022-12-16T22:32:05.217Z,3.30
2022-12-16T22:37:12.438Z,3.30
2022-12-16T22:42:19.580Z,3.30
2022-12-16T22:47:26.799Z,3.30
2022-12-16T22:52:34.084Z,3.30
2022-12-16T22:57:41.273Z,4.15
2022-12-16T23:02:48.435Z,4.15
2022-12-16T23:07:55.638Z,3.59
2022-12-16T23:13:02.948Z,3.59
2022-12-16T23:18:10.000Z,4.15
2022-12-16T23:23:17.172Z,3.59
2022-12-16T23:28:24.297Z,3.59
2022-12-16T23:33:31.439Z,3.59
2022-12-16T23:38:38.695Z,3.59
2022-12-16T23:43:45.870Z,3.59
2022-12-16T23:48:53.083Z,3.59
2022-12-16T23:54:00.302Z,3.59
2022-12-16T23:59:07.523Z,3.30
